sensor_id;sensor_type;location;lat;lon;timestamp;pressure;altitude;pressure_sealevel;temperature;humidity
34241;BME280;20503;50.200;19.508;2023-01-26T00:02:11;102368.35;;;-0.47;100.00
34241;BME280;20503;50.200;19.508;2023-01-26T00:07:22;102369.41;;;-0.50;100.00
34241;BME280;20503;50.200;19.508;2023-01-26T00:12:33;102355.41;;;-0.55;100.00
34241;BME280;20503;50.200;19.508;2023-01-26T00:17:44;102356.85;;;-0.49;100.00
34241;BME280;20503;50.200;19.508;2023-01-26T00:22:55;102336.97;;;-0.47;100.00
34241;BME280;20503;50.200;19.508;2023-01-26T00:28:05;102345.30;;;-0.37;100.00
34241;BME280;20503;50.200;19.508;2023-01-26T00:33:16;102329.87;;;-0.48;100.00
34241;BME280;20503;50.200;19.508;2023-01-26T00:38:28;102319.11;;;-0.48;100.00
34241;BME280;20503;50.200;19.508;2023-01-26T00:43:38;102319.75;;;-0.44;100.00
34241;BME280;20503;50.200;19.508;2023-01-26T00:48:48;102314.88;;;-0.52;100.00
34241;BME280;20503;50.200;19.508;2023-01-26T00:53:59;102318.16;;;-0.47;100.00
34241;BME280;20503;50.200;19.508;2023-01-26T00:59:10;102314.11;;;-0.54;100.00
34241;BME280;20503;50.200;19.508;2023-01-26T01:04:21;102310.12;;;-0.61;100.00
34241;BME280;20503;50.200;19.508;2023-01-26T01:09:31;102303.74;;;-0.46;100.00
34241;BME280;20503;50.200;19.508;2023-01-26T01:14:42;102297.61;;;-0.48;100.00
34241;BME280;20503;50.200;19.508;2023-01-26T01:19:53;102291.84;;;-0.56;100.00
34241;BME280;20503;50.200;19.508;2023-01-26T01:25:05;102287.69;;;-0.47;100.00
34241;BME280;20503;50.200;19.508;2023-01-26T01:30:15;102287.40;;;-0.43;100.00
34241;BME280;20503;50.200;19.508;2023-01-26T01:35:25;102284.75;;;-0.57;100.00
34241;BME280;20503;50.200;19.508;2023-01-26T01:40:42;102273.79;;;-0.54;100.00
34241;BME280;20503;50.200;19.508;2023-01-26T01:45:49;102265.85;;;-0.55;100.00
34241;BME280;20503;50.200;19.508;2023-01-26T01:51:03;102275.21;;;-0.48;100.00
34241;BME280;20503;50.200;19.508;2023-01-26T01:56:12;102270.09;;;-0.39;100.00
34241;BME280;20503;50.200;19.508;2023-01-26T02:01:19;102270.63;;;-0.34;100.00
34241;BME280;20503;50.200;19.508;2023-01-26T02:11:44;102266.60;;;-0.53;100.00
34241;BME280;20503;50.200;19.508;2023-01-26T02:16:52;102264.75;;;-0.53;100.00
34241;BME280;20503;50.200;19.508;2023-01-26T02:22:07;102264.16;;;-0.44;100.00
34241;BME280;20503;50.200;19.508;2023-01-26T02:27:13;102263.49;;;-0.47;100.00
34241;BME280;20503;50.200;19.508;2023-01-26T02:32:24;102260.38;;;-0.41;100.00
34241;BME280;20503;50.200;19.508;2023-01-26T02:37:35;102255.13;;;-0.43;100.00
34241;BME280;20503;50.200;19.508;2023-01-26T02:42:46;102248.62;;;-0.53;100.00
34241;BME280;20503;50.200;19.508;2023-01-26T02:47:56;102228.20;;;-0.55;100.00
34241;BME280;20503;50.200;19.508;2023-01-26T02:53:07;102228.55;;;-0.47;100.00
34241;BME280;20503;50.200;19.508;2023-01-26T02:58:18;102215.33;;;-0.38;100.00
34241;BME280;20503;50.200;19.508;2023-01-26T03:03:29;102207.84;;;-0.33;100.00
34241;BME280;20503;50.200;19.508;2023-01-26T03:08:41;102201.49;;;-0.32;100.00
34241;BME280;20503;50.200;19.508;2023-01-26T03:13:50;102207.87;;;-0.20;100.00
34241;BME280;20503;50.200;19.508;2023-01-26T03:19:01;102213.41;;;-0.36;100.00
34241;BME280;20503;50.200;19.508;2023-01-26T03:24:15;102198.76;;;-0.44;100.00
34241;BME280;20503;50.200;19.508;2023-01-26T03:29:29;102197.48;;;-0.39;100.00
34241;BME280;20503;50.200;19.508;2023-01-26T03:34:33;102197.91;;;-0.45;100.00
34241;BME280;20503;50.200;19.508;2023-01-26T03:39:44;102198.30;;;-0.51;100.00
34241;BME280;20503;50.200;19.508;2023-01-26T03:44:58;102196.50;;;-0.50;100.00
34241;BME280;20503;50.200;19.508;2023-01-26T03:50:12;102195.53;;;-0.49;100.00
34241;BME280;20503;50.200;19.508;2023-01-26T03:55:25;102182.27;;;-0.65;100.00
34241;BME280;20503;50.200;19.508;2023-01-26T04:00:38;102190.33;;;-0.65;100.00
34241;BME280;20503;50.200;19.508;2023-01-26T04:05:40;102178.52;;;-0.89;100.00
34241;BME280;20503;50.200;19.508;2023-01-26T04:10:54;102174.26;;;-0.79;100.00
34241;BME280;20503;50.200;19.508;2023-01-26T04:16:00;102185.55;;;-0.74;100.00
34241;BME280;20503;50.200;19.508;2023-01-26T04:21:13;102175.71;;;-0.61;100.00
34241;BME280;20503;50.200;19.508;2023-01-26T04:26:28;102168.62;;;-0.62;100.00
34241;BME280;20503;50.200;19.508;2023-01-26T04:31:36;102167.74;;;-0.62;100.00
34241;BME280;20503;50.200;19.508;2023-01-26T04:36:43;102167.45;;;-0.45;100.00
34241;BME280;20503;50.200;19.508;2023-01-26T04:41:54;102154.76;;;-0.43;100.00
34241;BME280;20503;50.200;19.508;2023-01-26T04:47:04;102148.00;;;-0.49;100.00
34241;BME280;20503;50.200;19.508;2023-01-26T04:52:15;102149.38;;;-0.43;100.00
34241;BME280;20503;50.200;19.508;2023-01-26T04:57:26;102136.06;;;-0.45;100.00
34241;BME280;20503;50.200;19.508;2023-01-26T05:02:37;102145.86;;;-0.44;100.00
34241;BME280;20503;50.200;19.508;2023-01-26T05:07:47;102141.00;;;-0.51;100.00
34241;BME280;20503;50.200;19.508;2023-01-26T05:12:58;102130.68;;;-0.57;100.00
34241;BME280;20503;50.200;19.508;2023-01-26T05:18:09;102135.17;;;-0.58;100.00
34241;BME280;20503;50.200;19.508;2023-01-26T05:23:20;102133.09;;;-0.67;100.00
34241;BME280;20503;50.200;19.508;2023-01-26T05:28:31;102128.59;;;-0.66;100.00
34241;BME280;20503;50.200;19.508;2023-01-26T05:33:41;102128.37;;;-0.76;100.00
34241;BME280;20503;50.200;19.508;2023-01-26T05:38:52;102129.39;;;-0.91;100.00
34241;BME280;20503;50.200;19.508;2023-01-26T05:44:03;102129.73;;;-0.83;100.00
34241;BME280;20503;50.200;19.508;2023-01-26T05:49:14;102121.12;;;-0.88;100.00
34241;BME280;20503;50.200;19.508;2023-01-26T05:54:25;102123.59;;;-0.85;100.00
34241;BME280;20503;50.200;19.508;2023-01-26T05:59:35;102120.82;;;-0.83;100.00
34241;BME280;20503;50.200;19.508;2023-01-26T06:04:46;102125.68;;;-0.76;100.00
34241;BME280;20503;50.200;19.508;2023-01-26T06:09:57;102118.06;;;-0.69;100.00
34241;BME280;20503;50.200;19.508;2023-01-26T06:15:09;102121.80;;;-0.72;100.00
34241;BME280;20503;50.200;19.508;2023-01-26T06:20:18;102117.20;;;-0.70;100.00
34241;BME280;20503;50.200;19.508;2023-01-26T06:25:29;102111.29;;;-0.62;100.00
34241;BME280;20503;50.200;19.508;2023-01-26T06:30:40;102116.05;;;-0.53;100.00
34241;BME280;20503;50.200;19.508;2023-01-26T06:35:51;102123.13;;;-0.65;100.00
34241;BME280;20503;50.200;19.508;2023-01-26T06:41:03;102107.00;;;-0.65;100.00
34241;BME280;20503;50.200;19.508;2023-01-26T06:46:14;102101.63;;;-0.65;100.00
34241;BME280;20503;50.200;19.508;2023-01-26T06:56:36;102086.26;;;-0.38;100.00
34241;BME280;20503;50.200;19.508;2023-01-26T07:01:46;102102.17;;;-0.35;100.00
34241;BME280;20503;50.200;19.508;2023-01-26T07:06:55;102107.34;;;-0.44;100.00
34241;BME280;20503;50.200;19.508;2023-01-26T07:12:07;102102.17;;;-0.47;100.00
34241;BME280;20503;50.200;19.508;2023-01-26T07:17:17;102090.14;;;-0.42;100.00
34241;BME280;20503;50.200;19.508;2023-01-26T07:22:28;102090.89;;;-0.40;100.00
34241;BME280;20503;50.200;19.508;2023-01-26T07:27:38;102088.55;;;-0.32;100.00
34241;BME280;20503;50.200;19.508;2023-01-26T07:32:49;102081.55;;;-0.34;100.00
34241;BME280;20503;50.200;19.508;2023-01-26T07:38:03;102078.53;;;-0.30;100.00
34241;BME280;20503;50.200;19.508;2023-01-26T07:43:13;102088.22;;;-0.15;100.00
34241;BME280;20503;50.200;19.508;2023-01-26T07:48:23;102095.19;;;-0.12;100.00
34241;BME280;20503;50.200;19.508;2023-01-26T07:53:37;102095.19;;;-0.12;100.00
34241;BME280;20503;50.200;19.508;2023-01-26T07:58:52;102093.13;;;0.03;100.00
34241;BME280;20503;50.200;19.508;2023-01-26T08:03:59;102094.02;;;0.04;100.00
34241;BME280;20503;50.200;19.508;2023-01-26T08:09:10;102086.23;;;0.12;100.00
34241;BME280;20503;50.200;19.508;2023-01-26T08:14:21;102091.20;;;0.18;100.00
34241;BME280;20503;50.200;19.508;2023-01-26T08:19:31;102093.88;;;0.18;100.00
34241;BME280;20503;50.200;19.508;2023-01-26T08:24:42;102085.94;;;0.04;100.00
34241;BME280;20503;50.200;19.508;2023-01-26T08:29:53;102087.43;;;0.08;100.00
34241;BME280;20503;50.200;19.508;2023-01-26T08:35:05;102084.64;;;-0.03;100.00
34241;BME280;20503;50.200;19.508;2023-01-26T08:40:15;102084.02;;;-0.06;100.00
34241;BME280;20503;50.200;19.508;2023-01-26T08:45:25;102083.69;;;-0.14;100.00
34241;BME280;20503;50.200;19.508;2023-01-26T08:50:36;102081.52;;;-0.09;100.00
34241;BME280;20503;50.200;19.508;2023-01-26T08:55:47;102087.55;;;-0.06;100.00
34241;BME280;20503;50.200;19.508;2023-01-26T09:00:58;102093.25;;;-0.10;100.00
34241;BME280;20503;50.200;19.508;2023-01-26T09:06:09;102093.06;;;-0.07;100.00
34241;BME280;20503;50.200;19.508;2023-01-26T09:11:19;102091.43;;;-0.10;100.00
34241;BME280;20503;50.200;19.508;2023-01-26T09:16:30;102094.22;;;-0.11;100.00
34241;BME280;20503;50.200;19.508;2023-01-26T09:21:41;102090.13;;;-0.17;100.00
34241;BME280;20503;50.200;19.508;2023-01-26T09:26:51;102092.51;;;-0.12;100.00
34241;BME280;20503;50.200;19.508;2023-01-26T09:32:03;102085.17;;;-0.10;100.00
34241;BME280;20503;50.200;19.508;2023-01-26T09:37:14;102070.99;;;0.00;100.00
34241;BME280;20503;50.200;19.508;2023-01-26T09:53:01;102029.28;;;0.18;100.00
34241;BME280;20503;50.200;19.508;2023-01-26T09:58:11;102038.85;;;0.22;100.00
34241;BME280;20503;50.200;19.508;2023-01-26T10:03:24;102032.27;;;0.26;100.00
34241;BME280;20503;50.200;19.508;2023-01-26T10:08:24;102036.45;;;0.30;100.00
34241;BME280;20503;50.200;19.508;2023-01-26T10:13:29;102031.95;;;0.54;100.00
34241;BME280;20503;50.200;19.508;2023-01-26T10:18:49;102016.87;;;0.75;100.00
34241;BME280;20503;50.200;19.508;2023-01-26T10:23:53;102014.19;;;0.75;100.00
34241;BME280;20503;50.200;19.508;2023-01-26T10:29:02;102031.66;;;0.69;100.00
34241;BME280;20503;50.200;19.508;2023-01-26T10:34:17;102027.14;;;0.46;100.00
34241;BME280;20503;50.200;19.508;2023-01-26T10:39:22;102020.14;;;0.44;100.00
34241;BME280;20503;50.200;19.508;2023-01-26T10:44:36;102012.77;;;0.58;100.00
34241;BME280;20503;50.200;19.508;2023-01-26T10:49:44;102009.67;;;0.52;100.00
34241;BME280;20503;50.200;19.508;2023-01-26T11:05:25;102001.02;;;0.59;100.00
34241;BME280;20503;50.200;19.508;2023-01-26T11:10:36;102009.45;;;0.55;100.00
34241;BME280;20503;50.200;19.508;2023-01-26T11:15:40;101999.23;;;0.71;100.00
34241;BME280;20503;50.200;19.508;2023-01-26T11:36:47;101964.31;;;0.69;100.00
34241;BME280;20503;50.200;19.508;2023-01-26T11:41:59;101956.04;;;0.83;100.00
34241;BME280;20503;50.200;19.508;2023-01-26T11:52:25;101942.65;;;1.16;100.00
34241;BME280;20503;50.200;19.508;2023-01-26T11:57:38;101929.05;;;1.29;100.00
34241;BME280;20503;50.200;19.508;2023-01-26T12:02:41;101920.08;;;1.06;100.00
34241;BME280;20503;50.200;19.508;2023-01-26T12:07:59;101920.45;;;1.13;100.00
34241;BME280;20503;50.200;19.508;2023-01-26T12:13:10;101917.16;;;1.20;100.00
34241;BME280;20503;50.200;19.508;2023-01-26T12:18:19;101913.14;;;1.37;100.00
34241;BME280;20503;50.200;19.508;2023-01-26T12:33:54;101893.53;;;1.35;100.00
34241;BME280;20503;50.200;19.508;2023-01-26T12:49:33;101888.79;;;0.71;100.00
34241;BME280;20503;50.200;19.508;2023-01-26T12:55:05;101880.71;;;0.71;100.00
34241;BME280;20503;50.200;19.508;2023-01-26T12:59:49;101875.11;;;0.85;100.00
34241;BME280;20503;50.200;19.508;2023-01-26T13:04:51;101862.98;;;1.01;100.00
34241;BME280;20503;50.200;19.508;2023-01-26T13:15:13;101878.81;;;1.17;100.00
34241;BME280;20503;50.200;19.508;2023-01-26T13:20:23;101875.75;;;1.10;100.00
34241;BME280;20503;50.200;19.508;2023-01-26T13:25:32;101877.80;;;0.96;100.00
34241;BME280;20503;50.200;19.508;2023-01-26T13:30:44;101873.65;;;1.14;100.00
34241;BME280;20503;50.200;19.508;2023-01-26T13:35:47;101879.78;;;1.27;100.00
34241;BME280;20503;50.200;19.508;2023-01-26T13:40:49;101886.30;;;1.24;100.00
34241;BME280;20503;50.200;19.508;2023-01-26T13:45:58;101870.11;;;1.13;100.00
34241;BME280;20503;50.200;19.508;2023-01-26T13:51:04;101876.63;;;1.33;100.00
34241;BME280;20503;50.200;19.508;2023-01-26T13:56:28;101874.64;;;1.24;100.00
34241;BME280;20503;50.200;19.508;2023-01-26T14:01:24;101874.25;;;1.06;100.00
34241;BME280;20503;50.200;19.508;2023-01-26T14:06:36;101880.01;;;0.91;100.00
34241;BME280;20503;50.200;19.508;2023-01-26T14:16:57;101873.98;;;0.87;100.00
34241;BME280;20503;50.200;19.508;2023-01-26T14:22:10;101868.73;;;0.86;100.00
34241;BME280;20503;50.200;19.508;2023-01-26T14:32:30;101868.43;;;0.56;100.00
34241;BME280;20503;50.200;19.508;2023-01-26T14:37:38;101877.66;;;0.75;100.00
34241;BME280;20503;50.200;19.508;2023-01-26T14:42:51;101876.11;;;0.49;100.00
34241;BME280;20503;50.200;19.508;2023-01-26T14:48:05;101871.89;;;0.34;100.00
34241;BME280;20503;50.200;19.508;2023-01-26T14:58:30;101860.57;;;0.18;100.00
34241;BME280;20503;50.200;19.508;2023-01-26T15:03:35;101864.88;;;0.21;100.00
34241;BME280;20503;50.200;19.508;2023-01-26T15:13:55;101853.25;;;-0.03;100.00
34241;BME280;20503;50.200;19.508;2023-01-26T15:19:05;101859.95;;;-0.08;100.00
34241;BME280;20503;50.200;19.508;2023-01-26T15:24:15;101855.17;;;-0.16;100.00
34241;BME280;20503;50.200;19.508;2023-01-26T15:29:30;101860.98;;;-0.22;100.00
34241;BME280;20503;50.200;19.508;2023-01-26T15:34:38;101855.73;;;-0.23;100.00
34241;BME280;20503;50.200;19.508;2023-01-26T15:39:48;101856.17;;;-0.29;100.00
34241;BME280;20503;50.200;19.508;2023-01-26T15:44:58;101856.49;;;-0.34;100.00
34241;BME280;20503;50.200;19.508;2023-01-26T15:50:10;101852.88;;;-0.45;100.00
34241;BME280;20503;50.200;19.508;2023-01-26T15:55:24;101861.49;;;-0.40;100.00
34241;BME280;20503;50.200;19.508;2023-01-26T16:00:31;101860.12;;;-0.46;100.00
34241;BME280;20503;50.200;19.508;2023-01-26T16:05:42;101853.53;;;-0.42;100.00
34241;BME280;20503;50.200;19.508;2023-01-26T16:10:53;101850.33;;;-0.47;100.00
34241;BME280;20503;50.200;19.508;2023-01-26T16:16:03;101850.09;;;-0.44;100.00
34241;BME280;20503;50.200;19.508;2023-01-26T16:21:24;101857.84;;;-0.39;100.00
34241;BME280;20503;50.200;19.508;2023-01-26T16:26:26;101856.22;;;-0.42;100.00
34241;BME280;20503;50.200;19.508;2023-01-26T16:31:35;101853.01;;;-0.47;100.00
34241;BME280;20503;50.200;19.508;2023-01-26T16:36:46;101852.05;;;-0.46;100.00
34241;BME280;20503;50.200;19.508;2023-01-26T16:42:11;101843.63;;;-0.41;100.00
34241;BME280;20503;50.200;19.508;2023-01-26T16:47:10;101841.63;;;-0.50;100.00
34241;BME280;20503;50.200;19.508;2023-01-26T16:52:19;101852.05;;;-0.46;100.00
34241;BME280;20503;50.200;19.508;2023-01-26T16:57:29;101846.89;;;-0.49;100.00
34241;BME280;20503;50.200;19.508;2023-01-26T17:02:40;101843.34;;;-0.49;100.00
34241;BME280;20503;50.200;19.508;2023-01-26T17:13:13;101833.05;;;-0.55;100.00
34241;BME280;20503;50.200;19.508;2023-01-26T17:23:23;101836.39;;;-0.64;100.00
34241;BME280;20503;50.200;19.508;2023-01-26T17:28:34;101848.01;;;-0.64;100.00
34241;BME280;20503;50.200;19.508;2023-01-26T17:33:47;101849.04;;;-0.54;100.00
34241;BME280;20503;50.200;19.508;2023-01-26T17:38:56;101846.89;;;-0.49;100.00
34241;BME280;20503;50.200;19.508;2023-01-26T17:44:06;101850.52;;;-0.50;100.00
34241;BME280;20503;50.200;19.508;2023-01-26T17:49:17;101844.30;;;-0.50;100.00
34241;BME280;20503;50.200;19.508;2023-01-26T17:54:28;101856.73;;;-0.37;100.00
34241;BME280;20503;50.200;19.508;2023-01-26T17:59:39;101849.35;;;-0.46;100.00
34241;BME280;20503;50.200;19.508;2023-01-26T18:04:49;101856.13;;;-0.53;100.00
34241;BME280;20503;50.200;19.508;2023-01-26T18:10:00;101852.38;;;-0.50;100.00
34241;BME280;20503;50.200;19.508;2023-01-26T18:15:11;101856.59;;;-0.59;100.00
34241;BME280;20503;50.200;19.508;2023-01-26T18:20:22;101850.98;;;-0.56;100.00
34241;BME280;20503;50.200;19.508;2023-01-26T18:25:33;101850.98;;;-0.56;100.00
34241;BME280;20503;50.200;19.508;2023-01-26T18:30:43;101861.96;;;-0.59;100.00
34241;BME280;20503;50.200;19.508;2023-01-26T18:36:02;101858.31;;;-0.58;100.00
34241;BME280;20503;50.200;19.508;2023-01-26T18:41:12;101860.67;;;-0.53;100.00
34241;BME280;20503;50.200;19.508;2023-01-26T18:46:16;101860.53;;;-0.52;100.00
34241;BME280;20503;50.200;19.508;2023-01-26T18:51:31;101860.34;;;-0.61;100.00
34241;BME280;20503;50.200;19.508;2023-01-26T18:56:37;101853.80;;;-0.57;100.00
34241;BME280;20503;50.200;19.508;2023-01-26T19:01:48;101860.53;;;-0.52;100.00
34241;BME280;20503;50.200;19.508;2023-01-26T19:06:59;101861.88;;;-0.57;100.00
34241;BME280;20503;50.200;19.508;2023-01-26T19:12:10;101848.43;;;-0.57;100.00
34241;BME280;20503;50.200;19.508;2023-01-26T19:17:20;101846.91;;;-0.61;100.00
34241;BME280;20503;50.200;19.508;2023-01-26T19:22:31;101849.30;;;-0.69;100.00
34241;BME280;20503;50.200;19.508;2023-01-26T19:27:42;101848.01;;;-0.64;100.00
34241;BME280;20503;50.200;19.508;2023-01-26T19:32:53;101841.12;;;-0.68;100.00
34241;BME280;20503;50.200;19.508;2023-01-26T19:38:06;101846.72;;;-0.71;100.00
34241;BME280;20503;50.200;19.508;2023-01-26T19:43:15;101844.68;;;-0.67;100.00
34241;BME280;20503;50.200;19.508;2023-01-26T19:48:27;101849.95;;;-0.66;100.00
34241;BME280;20503;50.200;19.508;2023-01-26T19:53:38;101840.05;;;-0.65;100.00
34241;BME280;20503;50.200;19.508;2023-01-26T19:58:51;101852.05;;;-0.58;100.00
34241;BME280;20503;50.200;19.508;2023-01-26T20:04:00;101843.34;;;-0.49;100.00
34241;BME280;20503;50.200;19.508;2023-01-26T20:09:08;101837.21;;;-0.51;100.00
34241;BME280;20503;50.200;19.508;2023-01-26T20:14:19;101831.38;;;-0.45;100.00
34241;BME280;20503;50.200;19.508;2023-01-26T20:19:30;101828.45;;;-0.42;100.00
34241;BME280;20503;50.200;19.508;2023-01-26T20:24:41;101824.41;;;-0.48;100.00
34241;BME280;20503;50.200;19.508;2023-01-26T20:29:51;101820.21;;;-0.52;100.00
34241;BME280;20503;50.200;19.508;2023-01-26T20:35:04;101825.02;;;-0.44;100.00
34241;BME280;20503;50.200;19.508;2023-01-26T20:40:13;101817.52;;;-0.52;100.00
34241;BME280;20503;50.200;19.508;2023-01-26T20:45:24;101821.50;;;-0.45;100.00
34241;BME280;20503;50.200;19.508;2023-01-26T20:50:34;101818.84;;;-0.34;100.00
34241;BME280;20503;50.200;19.508;2023-01-26T20:55:45;101827.39;;;-0.40;100.00
34241;BME280;20503;50.200;19.508;2023-01-26T21:01:02;101819.83;;;-0.35;100.00
34241;BME280;20503;50.200;19.508;2023-01-26T21:06:09;101822.52;;;-0.35;100.00
34241;BME280;20503;50.200;19.508;2023-01-26T21:11:18;101815.98;;;-0.43;100.00
34241;BME280;20503;50.200;19.508;2023-01-26T21:16:30;101818.98;;;-0.35;100.00
34241;BME280;20503;50.200;19.508;2023-01-26T21:21:39;101808.97;;;-0.33;100.00
34241;BME280;20503;50.200;19.508;2023-01-26T21:26:50;101816.73;;;-0.41;100.00
34241;BME280;20503;50.200;19.508;2023-01-26T21:32:01;101816.73;;;-0.41;100.00
34241;BME280;20503;50.200;19.508;2023-01-26T21:37:11;101809.77;;;-0.44;100.00
34241;BME280;20503;50.200;19.508;2023-01-26T21:42:22;101809.87;;;-0.45;100.00
34241;BME280;20503;50.200;19.508;2023-01-26T21:47:33;101805.88;;;-0.40;100.00
34241;BME280;20503;50.200;19.508;2023-01-26T21:52:44;101813.44;;;-0.45;100.00
34241;BME280;20503;50.200;19.508;2023-01-26T21:57:57;101784.93;;;-0.47;100.00
34241;BME280;20503;50.200;19.508;2023-01-26T22:03:10;101787.05;;;-0.40;100.00
34241;BME280;20503;50.200;19.508;2023-01-26T22:08:16;101797.47;;;-0.35;100.00
34241;BME280;20503;50.200;19.508;2023-01-26T22:13:27;101790.05;;;-0.32;100.00
34241;BME280;20503;50.200;19.508;2023-01-26T22:18:38;101791.53;;;-0.28;100.00
34241;BME280;20503;50.200;19.508;2023-01-26T22:23:49;101782.72;;;-0.30;100.00
34241;BME280;20503;50.200;19.508;2023-01-26T22:28:59;101785.23;;;-0.39;100.00
34241;BME280;20503;50.200;19.508;2023-01-26T22:34:10;101783.86;;;-0.45;100.00
34241;BME280;20503;50.200;19.508;2023-01-26T22:39:21;101782.58;;;-0.52;100.00
34241;BME280;20503;50.200;19.508;2023-01-26T22:44:32;101769.88;;;-0.50;100.00
34241;BME280;20503;50.200;19.508;2023-01-26T22:49:43;101775.38;;;-0.51;100.00
34241;BME280;20503;50.200;19.508;2023-01-26T22:54:53;101778.81;;;-0.49;100.00
34241;BME280;20503;50.200;19.508;2023-01-26T23:00:05;101768.70;;;-0.46;100.00
34241;BME280;20503;50.200;19.508;2023-01-26T23:05:15;101775.66;;;-0.43;100.00
34241;BME280;20503;50.200;19.508;2023-01-26T23:10:26;101775.80;;;-0.45;100.00
34241;BME280;20503;50.200;19.508;2023-01-26T23:15:37;101775.85;;;-0.57;100.00
34241;BME280;20503;50.200;19.508;2023-01-26T23:20:47;101762.62;;;-0.60;100.00
34241;BME280;20503;50.200;19.508;2023-01-26T23:25:59;101759.13;;;-0.50;100.00
34241;BME280;20503;50.200;19.508;2023-01-26T23:31:10;101761.77;;;-0.61;100.00
34241;BME280;20503;50.200;19.508;2023-01-26T23:36:19;101751.02;;;-0.61;100.00
34241;BME280;20503;50.200;19.508;2023-01-26T23:41:30;101763.89;;;-0.53;100.00
34241;BME280;20503;50.200;19.508;2023-01-26T23:46:41;101772.37;;;-0.47;100.00
34241;BME280;20503;50.200;19.508;2023-01-26T23:51:52;101763.02;;;-0.54;100.00
34241;BME280;20503;50.200;19.508;2023-01-26T23:57:03;101771.96;;;-0.53;100.00
